sensor_id;sensor_type;location;lat;lon;timestamp;temperature;humidity
24836;DHT22;12915;57.650;12.044;2022-07-30T00:00:08;20.20;99.90
24836;DHT22;12915;57.650;12.044;2022-07-30T00:02:34;20.30;99.90
24836;DHT22;12915;57.650;12.044;2022-07-30T00:05:00;20.30;99.90
24836;DHT22;12915;57.650;12.044;2022-07-30T00:07:26;20.30;99.90
24836;DHT22;12915;57.650;12.044;2022-07-30T00:09:52;20.20;99.90
24836;DHT22;12915;57.650;12.044;2022-07-30T00:12:18;20.20;99.90
24836;DHT22;12915;57.650;12.044;2022-07-30T00:14:44;20.30;99.90
24836;DHT22;12915;57.650;12.044;2022-07-30T00:17:10;20.40;99.90
24836;DHT22;12915;57.650;12.044;2022-07-30T00:19:36;20.50;99.90
24836;DHT22;12915;57.650;12.044;2022-07-30T00:22:02;20.30;99.90
24836;DHT22;12915;57.650;12.044;2022-07-30T00:24:28;20.20;99.90
24836;DHT22;12915;57.650;12.044;2022-07-30T00:26:54;20.20;99.90
24836;DHT22;12915;57.650;12.044;2022-07-30T00:29:20;20.20;99.90
24836;DHT22;12915;57.650;12.044;2022-07-30T00:31:45;20.20;99.90
24836;DHT22;12915;57.650;12.044;2022-07-30T00:34:11;20.20;99.90
24836;DHT22;12915;57.650;12.044;2022-07-30T00:36:47;20.20;99.90
24836;DHT22;12915;57.650;12.044;2022-07-30T00:39:13;20.20;99.90
24836;DHT22;12915;57.650;12.044;2022-07-30T00:41:57;20.20;99.90
24836;DHT22;12915;57.650;12.044;2022-07-30T00:44:24;20.20;99.90
24836;DHT22;12915;57.650;12.044;2022-07-30T00:46:50;20.20;99.90
24836;DHT22;12915;57.650;12.044;2022-07-30T00:49:16;20.20;99.90
24836;DHT22;12915;57.650;12.044;2022-07-30T00:51:42;20.10;99.90
24836;DHT22;12915;57.650;12.044;2022-07-30T00:54:08;20.20;99.90
24836;DHT22;12915;57.650;12.044;2022-07-30T00:56:34;20.10;99.90
24836;DHT22;12915;57.650;12.044;2022-07-30T00:59:00;20.10;99.90
24836;DHT22;12915;57.650;12.044;2022-07-30T01:01:26;20.10;99.90
24836;DHT22;12915;57.650;12.044;2022-07-30T01:03:52;20.10;99.90
24836;DHT22;12915;57.650;12.044;2022-07-30T01:06:19;20.10;99.90
24836;DHT22;12915;57.650;12.044;2022-07-30T01:08:45;20.10;99.90
24836;DHT22;12915;57.650;12.044;2022-07-30T01:11:11;20.10;99.90
24836;DHT22;12915;57.650;12.044;2022-07-30T01:13:37;20.10;99.90
24836;DHT22;12915;57.650;12.044;2022-07-30T01:16:06;20.00;99.90
24836;DHT22;12915;57.650;12.044;2022-07-30T01:18:32;19.70;99.90
24836;DHT22;12915;57.650;12.044;2022-07-30T01:21:23;19.50;99.90
24836;DHT22;12915;57.650;12.044;2022-07-30T01:23:56;19.40;99.90
24836;DHT22;12915;57.650;12.044;2022-07-30T01:26:25;19.30;99.90
24836;DHT22;12915;57.650;12.044;2022-07-30T01:28:53;19.20;99.90
24836;DHT22;12915;57.650;12.044;2022-07-30T01:31:28;19.00;99.90
24836;DHT22;12915;57.650;12.044;2022-07-30T01:33:56;19.00;99.90
24836;DHT22;12915;57.650;12.044;2022-07-30T01:39:46;18.70;99.90
24836;DHT22;12915;57.650;12.044;2022-07-30T01:42:13;18.70;99.90
24836;DHT22;12915;57.650;12.044;2022-07-30T01:44:41;18.60;99.90
24836;DHT22;12915;57.650;12.044;2022-07-30T01:47:08;18.60;99.90
24836;DHT22;12915;57.650;12.044;2022-07-30T01:49:36;18.60;99.90
24836;DHT22;12915;57.650;12.044;2022-07-30T01:52:04;18.40;99.90
24836;DHT22;12915;57.650;12.044;2022-07-30T01:54:31;18.40;99.90
24836;DHT22;12915;57.650;12.044;2022-07-30T01:57:00;18.40;99.90
24836;DHT22;12915;57.650;12.044;2022-07-30T01:59:27;18.40;99.90
24836;DHT22;12915;57.650;12.044;2022-07-30T02:01:54;18.40;99.90
24836;DHT22;12915;57.650;12.044;2022-07-30T02:04:20;18.40;99.90
24836;DHT22;12915;57.650;12.044;2022-07-30T02:07:00;18.50;99.90
24836;DHT22;12915;57.650;12.044;2022-07-30T02:09:36;18.50;99.90
24836;DHT22;12915;57.650;12.044;2022-07-30T02:12:05;18.60;99.90
24836;DHT22;12915;57.650;12.044;2022-07-30T02:17:43;18.60;99.90
24836;DHT22;12915;57.650;12.044;2022-07-30T02:20:11;18.60;99.90
24836;DHT22;12915;57.650;12.044;2022-07-30T02:22:40;18.50;99.90
24836;DHT22;12915;57.650;12.044;2022-07-30T02:25:08;18.50;99.90
24836;DHT22;12915;57.650;12.044;2022-07-30T02:27:37;18.50;99.90
24836;DHT22;12915;57.650;12.044;2022-07-30T02:30:05;18.50;99.90
24836;DHT22;12915;57.650;12.044;2022-07-30T02:32:36;18.60;99.90
24836;DHT22;12915;57.650;12.044;2022-07-30T02:35:19;18.50;99.90
24836;DHT22;12915;57.650;12.044;2022-07-30T02:37:50;18.40;99.90
24836;DHT22;12915;57.650;12.044;2022-07-30T02:40:18;18.40;99.90
24836;DHT22;12915;57.650;12.044;2022-07-30T02:42:46;18.40;99.90
24836;DHT22;12915;57.650;12.044;2022-07-30T02:45:15;18.50;99.90
24836;DHT22;12915;57.650;12.044;2022-07-30T02:47:51;18.60;99.90
24836;DHT22;12915;57.650;12.044;2022-07-30T02:50:19;18.60;99.90
24836;DHT22;12915;57.650;12.044;2022-07-30T02:52:45;18.60;99.90
24836;DHT22;12915;57.650;12.044;2022-07-30T02:55:12;18.60;99.90
24836;DHT22;12915;57.650;12.044;2022-07-30T02:57:41;18.60;99.90
24836;DHT22;12915;57.650;12.044;2022-07-30T03:00:08;18.60;99.90
24836;DHT22;12915;57.650;12.044;2022-07-30T03:02:35;18.50;99.90
24836;DHT22;12915;57.650;12.044;2022-07-30T03:05:02;18.50;99.90
24836;DHT22;12915;57.650;12.044;2022-07-30T03:07:29;18.60;99.90
24836;DHT22;12915;57.650;12.044;2022-07-30T03:09:57;18.50;99.90
24836;DHT22;12915;57.650;12.044;2022-07-30T03:12:24;18.60;99.90
24836;DHT22;12915;57.650;12.044;2022-07-30T03:14:51;18.60;99.90
24836;DHT22;12915;57.650;12.044;2022-07-30T03:17:17;18.60;99.90
24836;DHT22;12915;57.650;12.044;2022-07-30T03:19:44;18.60;99.90
24836;DHT22;12915;57.650;12.044;2022-07-30T03:22:13;18.60;99.90
24836;DHT22;12915;57.650;12.044;2022-07-30T03:24:42;18.60;99.90
24836;DHT22;12915;57.650;12.044;2022-07-30T03:27:09;18.70;99.90
24836;DHT22;12915;57.650;12.044;2022-07-30T03:29:36;18.70;99.90
24836;DHT22;12915;57.650;12.044;2022-07-30T03:32:04;18.70;99.90
24836;DHT22;12915;57.650;12.044;2022-07-30T03:34:32;18.70;99.90
24836;DHT22;12915;57.650;12.044;2022-07-30T03:37:00;18.70;99.90
24836;DHT22;12915;57.650;12.044;2022-07-30T03:39:32;18.70;99.90
24836;DHT22;12915;57.650;12.044;2022-07-30T03:41:58;18.70;99.90
24836;DHT22;12915;57.650;12.044;2022-07-30T03:44:24;18.70;99.90
24836;DHT22;12915;57.650;12.044;2022-07-30T03:46:52;18.70;99.90
24836;DHT22;12915;57.650;12.044;2022-07-30T03:49:18;18.70;99.90
24836;DHT22;12915;57.650;12.044;2022-07-30T03:51:44;18.70;99.90
24836;DHT22;12915;57.650;12.044;2022-07-30T03:54:11;18.70;99.90
24836;DHT22;12915;57.650;12.044;2022-07-30T03:56:37;18.70;99.90
24836;DHT22;12915;57.650;12.044;2022-07-30T03:59:04;18.70;99.90
24836;DHT22;12915;57.650;12.044;2022-07-30T04:01:30;18.70;99.90
24836;DHT22;12915;57.650;12.044;2022-07-30T04:04:06;18.70;99.90
24836;DHT22;12915;57.650;12.044;2022-07-30T04:06:32;18.70;99.90
24836;DHT22;12915;57.650;12.044;2022-07-30T04:09:04;18.70;99.90
24836;DHT22;12915;57.650;12.044;2022-07-30T04:11:30;18.70;99.90
24836;DHT22;12915;57.650;12.044;2022-07-30T04:13:56;18.80;99.90
24836;DHT22;12915;57.650;12.044;2022-07-30T04:16:42;18.80;99.90
24836;DHT22;12915;57.650;12.044;2022-07-30T04:19:14;18.80;99.90
24836;DHT22;12915;57.650;12.044;2022-07-30T04:21:41;18.80;99.90
24836;DHT22;12915;57.650;12.044;2022-07-30T04:24:10;18.70;99.90
24836;DHT22;12915;57.650;12.044;2022-07-30T04:26:37;18.70;99.90
24836;DHT22;12915;57.650;12.044;2022-07-30T04:29:06;18.70;99.90
24836;DHT22;12915;57.650;12.044;2022-07-30T04:31:33;18.80;99.90
24836;DHT22;12915;57.650;12.044;2022-07-30T04:34:01;18.80;99.90
24836;DHT22;12915;57.650;12.044;2022-07-30T04:36:27;18.90;99.90
24836;DHT22;12915;57.650;12.044;2022-07-30T04:38:53;19.00;99.90
24836;DHT22;12915;57.650;12.044;2022-07-30T04:41:19;19.10;99.90
24836;DHT22;12915;57.650;12.044;2022-07-30T04:43:44;19.20;99.90
24836;DHT22;12915;57.650;12.044;2022-07-30T04:46:10;19.00;99.90
24836;DHT22;12915;57.650;12.044;2022-07-30T04:48:36;18.90;99.90
24836;DHT22;12915;57.650;12.044;2022-07-30T04:51:04;18.90;99.90
24836;DHT22;12915;57.650;12.044;2022-07-30T04:53:34;19.00;99.90
24836;DHT22;12915;57.650;12.044;2022-07-30T04:56:01;19.00;99.90
24836;DHT22;12915;57.650;12.044;2022-07-30T04:58:29;19.10;99.90
24836;DHT22;12915;57.650;12.044;2022-07-30T05:00:57;19.20;99.90
24836;DHT22;12915;57.650;12.044;2022-07-30T05:03:24;19.20;99.90
24836;DHT22;12915;57.650;12.044;2022-07-30T05:05:51;19.20;99.90
24836;DHT22;12915;57.650;12.044;2022-07-30T05:08:17;19.10;99.90
24836;DHT22;12915;57.650;12.044;2022-07-30T05:10:44;19.20;99.90
24836;DHT22;12915;57.650;12.044;2022-07-30T05:13:11;19.30;99.90
24836;DHT22;12915;57.650;12.044;2022-07-30T05:15:37;19.40;99.90
24836;DHT22;12915;57.650;12.044;2022-07-30T05:18:03;19.40;99.90
24836;DHT22;12915;57.650;12.044;2022-07-30T05:20:29;19.40;99.90
24836;DHT22;12915;57.650;12.044;2022-07-30T05:22:55;19.50;99.90
24836;DHT22;12915;57.650;12.044;2022-07-30T05:25:20;19.60;99.90
24836;DHT22;12915;57.650;12.044;2022-07-30T05:31:08;19.60;99.90
24836;DHT22;12915;57.650;12.044;2022-07-30T05:33:34;19.70;99.90
24836;DHT22;12915;57.650;12.044;2022-07-30T05:36:00;19.60;99.90
24836;DHT22;12915;57.650;12.044;2022-07-30T05:38:25;19.50;99.90
24836;DHT22;12915;57.650;12.044;2022-07-30T05:40:51;19.60;99.90
24836;DHT22;12915;57.650;12.044;2022-07-30T05:45:52;19.90;99.90
24836;DHT22;12915;57.650;12.044;2022-07-30T05:48:20;19.90;99.90
24836;DHT22;12915;57.650;12.044;2022-07-30T05:50:46;20.00;99.90
24836;DHT22;12915;57.650;12.044;2022-07-30T05:53:12;20.00;99.90
24836;DHT22;12915;57.650;12.044;2022-07-30T05:55:37;19.90;99.90
24836;DHT22;12915;57.650;12.044;2022-07-30T05:58:06;20.10;99.90
24836;DHT22;12915;57.650;12.044;2022-07-30T06:01:06;20.10;99.90
24836;DHT22;12915;57.650;12.044;2022-07-30T06:03:41;20.30;99.90
24836;DHT22;12915;57.650;12.044;2022-07-30T06:06:07;20.30;99.90
24836;DHT22;12915;57.650;12.044;2022-07-30T06:08:33;20.10;99.90
24836;DHT22;12915;57.650;12.044;2022-07-30T06:10:59;20.30;99.90
24836;DHT22;12915;57.650;12.044;2022-07-30T06:13:25;20.40;99.90
24836;DHT22;12915;57.650;12.044;2022-07-30T06:16:11;20.50;99.90
24836;DHT22;12915;57.650;12.044;2022-07-30T06:18:42;20.40;99.90
24836;DHT22;12915;57.650;12.044;2022-07-30T06:21:08;20.50;99.90
24836;DHT22;12915;57.650;12.044;2022-07-30T06:23:34;20.60;99.90
24836;DHT22;12915;57.650;12.044;2022-07-30T06:26:00;20.70;99.90
24836;DHT22;12915;57.650;12.044;2022-07-30T06:28:26;20.70;99.90
24836;DHT22;12915;57.650;12.044;2022-07-30T06:30:52;20.90;99.90
24836;DHT22;12915;57.650;12.044;2022-07-30T06:33:17;21.00;99.90
24836;DHT22;12915;57.650;12.044;2022-07-30T06:35:43;20.90;99.90
24836;DHT22;12915;57.650;12.044;2022-07-30T06:38:11;20.90;99.90
24836;DHT22;12915;57.650;12.044;2022-07-30T06:40:39;20.90;99.90
24836;DHT22;12915;57.650;12.044;2022-07-30T06:43:10;20.70;99.90
24836;DHT22;12915;57.650;12.044;2022-07-30T06:45:36;20.80;99.90
24836;DHT22;12915;57.650;12.044;2022-07-30T06:48:04;21.00;99.90
24836;DHT22;12915;57.650;12.044;2022-07-30T06:50:30;21.20;99.90
24836;DHT22;12915;57.650;12.044;2022-07-30T06:52:56;21.20;99.90
24836;DHT22;12915;57.650;12.044;2022-07-30T06:55:23;21.30;99.90
24836;DHT22;12915;57.650;12.044;2022-07-30T06:57:53;21.30;99.90
24836;DHT22;12915;57.650;12.044;2022-07-30T07:00:20;21.40;99.90
24836;DHT22;12915;57.650;12.044;2022-07-30T07:02:47;21.30;99.90
24836;DHT22;12915;57.650;12.044;2022-07-30T07:05:18;21.30;99.90
24836;DHT22;12915;57.650;12.044;2022-07-30T07:08:05;21.60;99.90
24836;DHT22;12915;57.650;12.044;2022-07-30T07:26:13;21.80;99.90
24836;DHT22;12915;57.650;12.044;2022-07-30T07:28:40;21.70;99.90
24836;DHT22;12915;57.650;12.044;2022-07-30T07:31:07;21.70;99.90
24836;DHT22;12915;57.650;12.044;2022-07-30T07:33:33;21.90;99.90
24836;DHT22;12915;57.650;12.044;2022-07-30T07:35:59;22.00;99.90
24836;DHT22;12915;57.650;12.044;2022-07-30T07:38:24;21.90;99.90
24836;DHT22;12915;57.650;12.044;2022-07-30T07:40:51;22.00;99.90
24836;DHT22;12915;57.650;12.044;2022-07-30T08:07:30;22.80;99.90
24836;DHT22;12915;57.650;12.044;2022-07-30T08:15:14;22.20;99.90
24836;DHT22;12915;57.650;12.044;2022-07-30T08:28:01;22.70;99.90
24836;DHT22;12915;57.650;12.044;2022-07-30T08:30:29;22.90;99.90
24836;DHT22;12915;57.650;12.044;2022-07-30T08:33:39;22.70;99.90
24836;DHT22;12915;57.650;12.044;2022-07-30T08:36:05;22.50;99.90
24836;DHT22;12915;57.650;12.044;2022-07-30T08:38:33;22.60;99.90
24836;DHT22;12915;57.650;12.044;2022-07-30T08:40:59;22.90;99.90
24836;DHT22;12915;57.650;12.044;2022-07-30T08:43:26;23.00;99.90
24836;DHT22;12915;57.650;12.044;2022-07-30T08:45:52;23.00;99.90
24836;DHT22;12915;57.650;12.044;2022-07-30T08:48:20;23.30;99.90
24836;DHT22;12915;57.650;12.044;2022-07-30T08:50:57;23.60;99.90
24836;DHT22;12915;57.650;12.044;2022-07-30T08:56:00;23.90;99.90
24836;DHT22;12915;57.650;12.044;2022-07-30T08:58:32;23.90;99.90
24836;DHT22;12915;57.650;12.044;2022-07-30T09:01:02;24.00;99.90
24836;DHT22;12915;57.650;12.044;2022-07-30T09:13:50;23.40;99.90
24836;DHT22;12915;57.650;12.044;2022-07-30T09:44:46;23.40;99.90
24836;DHT22;12915;57.650;12.044;2022-07-30T09:47:40;23.10;99.90
24836;DHT22;12915;57.650;12.044;2022-07-30T09:50:11;23.00;99.90
24836;DHT22;12915;57.650;12.044;2022-07-30T09:52:45;23.00;99.90
24836;DHT22;12915;57.650;12.044;2022-07-30T09:55:55;22.90;99.90
24836;DHT22;12915;57.650;12.044;2022-07-30T09:58:21;23.20;99.90
24836;DHT22;12915;57.650;12.044;2022-07-30T10:14:16;23.80;99.90
24836;DHT22;12915;57.650;12.044;2022-07-30T10:16:45;23.80;99.90
24836;DHT22;12915;57.650;12.044;2022-07-30T10:19:12;24.00;99.90
24836;DHT22;12915;57.650;12.044;2022-07-30T10:25:03;24.50;99.90
24836;DHT22;12915;57.650;12.044;2022-07-30T10:34:00;24.50;99.90
24836;DHT22;12915;57.650;12.044;2022-07-30T10:36:27;24.80;99.90
24836;DHT22;12915;57.650;12.044;2022-07-30T10:38:54;25.10;99.90
24836;DHT22;12915;57.650;12.044;2022-07-30T10:41:46;25.30;99.90
24836;DHT22;12915;57.650;12.044;2022-07-30T10:47:02;25.30;99.90
24836;DHT22;12915;57.650;12.044;2022-07-30T10:49:28;24.80;99.90
24836;DHT22;12915;57.650;12.044;2022-07-30T10:52:01;24.90;99.90
24836;DHT22;12915;57.650;12.044;2022-07-30T10:57:19;25.10;99.90
24836;DHT22;12915;57.650;12.044;2022-07-30T11:02:18;25.10;99.90
24836;DHT22;12915;57.650;12.044;2022-07-30T11:04:49;25.10;99.90
24836;DHT22;12915;57.650;12.044;2022-07-30T11:09:50;25.90;99.90
24836;DHT22;12915;57.650;12.044;2022-07-30T11:15:15;26.00;99.90
24836;DHT22;12915;57.650;12.044;2022-07-30T11:18:05;25.80;99.90
24836;DHT22;12915;57.650;12.044;2022-07-30T11:20:33;25.80;99.90
24836;DHT22;12915;57.650;12.044;2022-07-30T11:25:43;26.00;99.90
24836;DHT22;12915;57.650;12.044;2022-07-30T11:28:44;26.10;99.90
24836;DHT22;12915;57.650;12.044;2022-07-30T11:34:25;25.80;99.90
24836;DHT22;12915;57.650;12.044;2022-07-30T11:37:07;25.90;99.90
24836;DHT22;12915;57.650;12.044;2022-07-30T11:42:30;25.90;99.90
24836;DHT22;12915;57.650;12.044;2022-07-30T11:47:47;25.50;99.90
24836;DHT22;12915;57.650;12.044;2022-07-30T11:50:23;25.60;99.90
24836;DHT22;12915;57.650;12.044;2022-07-30T11:53:03;25.90;99.90
24836;DHT22;12915;57.650;12.044;2022-07-30T11:55:35;26.20;99.90
24836;DHT22;12915;57.650;12.044;2022-07-30T11:58:03;26.30;99.90
24836;DHT22;12915;57.650;12.044;2022-07-30T12:00:40;26.10;99.90
24836;DHT22;12915;57.650;12.044;2022-07-30T12:03:09;26.10;99.90
24836;DHT22;12915;57.650;12.044;2022-07-30T12:05:35;26.10;99.90
24836;DHT22;12915;57.650;12.044;2022-07-30T12:08:11;26.20;99.90
24836;DHT22;12915;57.650;12.044;2022-07-30T12:10:37;26.20;99.90
24836;DHT22;12915;57.650;12.044;2022-07-30T12:17:07;26.10;99.90
24836;DHT22;12915;57.650;12.044;2022-07-30T12:19:45;26.50;99.90
24836;DHT22;12915;57.650;12.044;2022-07-30T12:22:11;26.50;99.90
24836;DHT22;12915;57.650;12.044;2022-07-30T12:24:37;26.70;99.90
24836;DHT22;12915;57.650;12.044;2022-07-30T12:27:07;26.70;99.90
24836;DHT22;12915;57.650;12.044;2022-07-30T12:29:33;26.60;99.90
24836;DHT22;12915;57.650;12.044;2022-07-30T12:32:00;26.70;99.90
24836;DHT22;12915;57.650;12.044;2022-07-30T12:34:26;26.70;99.90
24836;DHT22;12915;57.650;12.044;2022-07-30T12:36:53;26.70;99.90
24836;DHT22;12915;57.650;12.044;2022-07-30T12:39:25;26.90;99.90
24836;DHT22;12915;57.650;12.044;2022-07-30T12:41:53;26.70;99.90
24836;DHT22;12915;57.650;12.044;2022-07-30T12:44:36;26.70;99.90
24836;DHT22;12915;57.650;12.044;2022-07-30T12:47:04;26.20;99.90
24836;DHT22;12915;57.650;12.044;2022-07-30T12:49:31;26.30;99.90
24836;DHT22;12915;57.650;12.044;2022-07-30T12:51:57;26.30;99.90
24836;DHT22;12915;57.650;12.044;2022-07-30T12:58:09;26.60;99.90
24836;DHT22;12915;57.650;12.044;2022-07-30T13:00:49;26.80;99.90
24836;DHT22;12915;57.650;12.044;2022-07-30T13:03:29;26.70;99.90
24836;DHT22;12915;57.650;12.044;2022-07-30T13:09:28;26.20;99.90
24836;DHT22;12915;57.650;12.044;2022-07-30T13:11:54;26.10;99.90
24836;DHT22;12915;57.650;12.044;2022-07-30T13:17:28;26.10;99.90
24836;DHT22;12915;57.650;12.044;2022-07-30T13:19:54;26.50;99.90
24836;DHT22;12915;57.650;12.044;2022-07-30T13:22:20;26.60;99.90
24836;DHT22;12915;57.650;12.044;2022-07-30T13:24:46;26.70;99.90
24836;DHT22;12915;57.650;12.044;2022-07-30T13:27:12;27.10;99.90
24836;DHT22;12915;57.650;12.044;2022-07-30T13:29:38;26.80;99.90
24836;DHT22;12915;57.650;12.044;2022-07-30T13:32:05;26.90;99.90
24836;DHT22;12915;57.650;12.044;2022-07-30T13:34:31;27.30;99.90
24836;DHT22;12915;57.650;12.044;2022-07-30T13:37:00;27.70;99.90
24836;DHT22;12915;57.650;12.044;2022-07-30T13:39:27;27.90;99.90
24836;DHT22;12915;57.650;12.044;2022-07-30T13:41:54;27.90;99.90
24836;DHT22;12915;57.650;12.044;2022-07-30T13:44:20;27.80;99.90
24836;DHT22;12915;57.650;12.044;2022-07-30T13:46:45;27.90;99.90
24836;DHT22;12915;57.650;12.044;2022-07-30T13:49:11;28.30;99.90
24836;DHT22;12915;57.650;12.044;2022-07-30T13:51:37;28.90;99.90
24836;DHT22;12915;57.650;12.044;2022-07-30T13:54:04;29.00;99.90
24836;DHT22;12915;57.650;12.044;2022-07-30T13:56:34;29.00;99.90
24836;DHT22;12915;57.650;12.044;2022-07-30T13:59:10;28.70;99.90
24836;DHT22;12915;57.650;12.044;2022-07-30T14:01:37;28.30;99.90
24836;DHT22;12915;57.650;12.044;2022-07-30T14:04:03;28.10;99.90
24836;DHT22;12915;57.650;12.044;2022-07-30T14:06:30;27.80;99.90
24836;DHT22;12915;57.650;12.044;2022-07-30T14:08:55;27.70;99.90
24836;DHT22;12915;57.650;12.044;2022-07-30T14:11:21;27.60;99.90
24836;DHT22;12915;57.650;12.044;2022-07-30T14:13:47;27.60;99.90
24836;DHT22;12915;57.650;12.044;2022-07-30T14:16:13;27.60;99.90
24836;DHT22;12915;57.650;12.044;2022-07-30T14:18:38;27.90;99.90
24836;DHT22;12915;57.650;12.044;2022-07-30T14:21:04;28.20;99.90
24836;DHT22;12915;57.650;12.044;2022-07-30T14:26:57;28.60;99.90
24836;DHT22;12915;57.650;12.044;2022-07-30T14:29:26;29.90;99.90
24836;DHT22;12915;57.650;12.044;2022-07-30T14:31:53;30.80;99.90
24836;DHT22;12915;57.650;12.044;2022-07-30T14:34:19;31.10;99.90
24836;DHT22;12915;57.650;12.044;2022-07-30T14:36:45;30.80;99.90
24836;DHT22;12915;57.650;12.044;2022-07-30T14:39:11;30.70;99.90
24836;DHT22;12915;57.650;12.044;2022-07-30T14:41:37;30.30;99.90
24836;DHT22;12915;57.650;12.044;2022-07-30T14:44:13;29.80;99.90
24836;DHT22;12915;57.650;12.044;2022-07-30T14:46:43;29.80;99.90
24836;DHT22;12915;57.650;12.044;2022-07-30T14:49:12;30.50;99.90
24836;DHT22;12915;57.650;12.044;2022-07-30T14:51:41;31.10;99.90
24836;DHT22;12915;57.650;12.044;2022-07-30T14:54:08;31.20;99.90
24836;DHT22;12915;57.650;12.044;2022-07-30T14:56:37;30.40;99.90
24836;DHT22;12915;57.650;12.044;2022-07-30T14:59:03;29.40;99.90
24836;DHT22;12915;57.650;12.044;2022-07-30T15:01:30;28.50;99.90
24836;DHT22;12915;57.650;12.044;2022-07-30T15:03:58;27.70;99.90
24836;DHT22;12915;57.650;12.044;2022-07-30T15:06:25;27.30;99.90
24836;DHT22;12915;57.650;12.044;2022-07-30T15:08:54;27.60;99.90
24836;DHT22;12915;57.650;12.044;2022-07-30T15:11:24;28.20;99.90
24836;DHT22;12915;57.650;12.044;2022-07-30T15:13:50;28.70;99.90
24836;DHT22;12915;57.650;12.044;2022-07-30T15:16:28;29.10;99.90
24836;DHT22;12915;57.650;12.044;2022-07-30T15:27:31;28.00;99.90
24836;DHT22;12915;57.650;12.044;2022-07-30T15:30:03;27.00;99.90
24836;DHT22;12915;57.650;12.044;2022-07-30T15:32:34;26.50;99.90
24836;DHT22;12915;57.650;12.044;2022-07-30T15:35:04;26.20;99.90
24836;DHT22;12915;57.650;12.044;2022-07-30T15:37:29;26.20;99.90
24836;DHT22;12915;57.650;12.044;2022-07-30T15:39:55;26.10;99.90
24836;DHT22;12915;57.650;12.044;2022-07-30T15:42:21;26.20;99.90
24836;DHT22;12915;57.650;12.044;2022-07-30T15:44:48;26.60;99.90
24836;DHT22;12915;57.650;12.044;2022-07-30T15:47:14;26.70;99.90
24836;DHT22;12915;57.650;12.044;2022-07-30T15:49:40;26.70;99.90
24836;DHT22;12915;57.650;12.044;2022-07-30T15:52:07;26.30;99.90
24836;DHT22;12915;57.650;12.044;2022-07-30T15:54:32;26.00;99.90
24836;DHT22;12915;57.650;12.044;2022-07-30T15:57:01;25.90;99.90
24836;DHT22;12915;57.650;12.044;2022-07-30T15:59:29;25.80;99.90
24836;DHT22;12915;57.650;12.044;2022-07-30T16:01:55;25.70;99.90
24836;DHT22;12915;57.650;12.044;2022-07-30T16:04:24;26.00;99.90
24836;DHT22;12915;57.650;12.044;2022-07-30T16:06:52;25.80;99.90
24836;DHT22;12915;57.650;12.044;2022-07-30T16:09:22;25.60;99.90
24836;DHT22;12915;57.650;12.044;2022-07-30T16:11:48;25.50;99.90
24836;DHT22;12915;57.650;12.044;2022-07-30T16:14:14;25.60;99.90
24836;DHT22;12915;57.650;12.044;2022-07-30T16:16:41;25.40;99.90
24836;DHT22;12915;57.650;12.044;2022-07-30T16:19:07;25.50;99.90
24836;DHT22;12915;57.650;12.044;2022-07-30T16:21:46;25.80;99.90
24836;DHT22;12915;57.650;12.044;2022-07-30T16:27:23;25.70;99.90
24836;DHT22;12915;57.650;12.044;2022-07-30T16:29:50;25.50;99.90
24836;DHT22;12915;57.650;12.044;2022-07-30T16:32:16;25.10;99.90
24836;DHT22;12915;57.650;12.044;2022-07-30T16:34:41;25.00;99.90
24836;DHT22;12915;57.650;12.044;2022-07-30T16:37:07;25.40;99.90
24836;DHT22;12915;57.650;12.044;2022-07-30T16:39:34;25.40;99.90
24836;DHT22;12915;57.650;12.044;2022-07-30T16:42:00;25.20;99.90
24836;DHT22;12915;57.650;12.044;2022-07-30T16:44:27;25.10;99.90
24836;DHT22;12915;57.650;12.044;2022-07-30T16:46:56;25.30;99.90
24836;DHT22;12915;57.650;12.044;2022-07-30T16:49:22;25.10;99.90
24836;DHT22;12915;57.650;12.044;2022-07-30T16:51:48;25.00;99.90
24836;DHT22;12915;57.650;12.044;2022-07-30T16:54:15;25.20;99.90
24836;DHT22;12915;57.650;12.044;2022-07-30T16:56:43;25.30;99.90
24836;DHT22;12915;57.650;12.044;2022-07-30T16:59:10;25.30;99.90
24836;DHT22;12915;57.650;12.044;2022-07-30T17:01:36;25.30;99.90
24836;DHT22;12915;57.650;12.044;2022-07-30T17:04:02;25.50;99.90
24836;DHT22;12915;57.650;12.044;2022-07-30T17:06:27;25.70;99.90
24836;DHT22;12915;57.650;12.044;2022-07-30T17:08:53;25.50;99.90
24836;DHT22;12915;57.650;12.044;2022-07-30T17:11:19;25.70;99.90
24836;DHT22;12915;57.650;12.044;2022-07-30T17:13:45;26.60;99.90
24836;DHT22;12915;57.650;12.044;2022-07-30T17:16:12;26.90;99.90
24836;DHT22;12915;57.650;12.044;2022-07-30T17:18:38;27.10;99.90
24836;DHT22;12915;57.650;12.044;2022-07-30T17:23:49;27.00;99.90
24836;DHT22;12915;57.650;12.044;2022-07-30T17:26:20;26.80;99.90
24836;DHT22;12915;57.650;12.044;2022-07-30T17:31:31;25.80;99.90
24836;DHT22;12915;57.650;12.044;2022-07-30T17:33:58;25.40;99.90
24836;DHT22;12915;57.650;12.044;2022-07-30T17:36:24;25.00;99.90
24836;DHT22;12915;57.650;12.044;2022-07-30T17:38:50;24.90;99.90
24836;DHT22;12915;57.650;12.044;2022-07-30T17:41:16;25.00;99.90
24836;DHT22;12915;57.650;12.044;2022-07-30T17:43:41;24.70;99.90
24836;DHT22;12915;57.650;12.044;2022-07-30T17:46:07;24.50;99.90
24836;DHT22;12915;57.650;12.044;2022-07-30T17:48:33;24.50;99.90
24836;DHT22;12915;57.650;12.044;2022-07-30T17:50:59;24.60;99.90
24836;DHT22;12915;57.650;12.044;2022-07-30T17:53:25;24.50;99.90
24836;DHT22;12915;57.650;12.044;2022-07-30T17:55:51;24.40;99.90
24836;DHT22;12915;57.650;12.044;2022-07-30T18:06:56;24.20;99.90
24836;DHT22;12915;57.650;12.044;2022-07-30T18:22:19;24.30;99.90
24836;DHT22;12915;57.650;12.044;2022-07-30T18:24:45;24.40;99.90
24836;DHT22;12915;57.650;12.044;2022-07-30T18:27:14;24.50;99.90
24836;DHT22;12915;57.650;12.044;2022-07-30T18:29:41;24.60;99.90
24836;DHT22;12915;57.650;12.044;2022-07-30T18:32:07;24.80;99.90
24836;DHT22;12915;57.650;12.044;2022-07-30T18:34:33;24.80;99.90
24836;DHT22;12915;57.650;12.044;2022-07-30T18:36:59;24.70;99.90
24836;DHT22;12915;57.650;12.044;2022-07-30T18:39:25;24.70;99.90
24836;DHT22;12915;57.650;12.044;2022-07-30T18:41:51;24.60;99.90
24836;DHT22;12915;57.650;12.044;2022-07-30T18:44:17;24.60;99.90
24836;DHT22;12915;57.650;12.044;2022-07-30T18:46:43;24.70;99.90
24836;DHT22;12915;57.650;12.044;2022-07-30T18:49:09;24.70;99.90
24836;DHT22;12915;57.650;12.044;2022-07-30T18:51:36;24.60;99.90
24836;DHT22;12915;57.650;12.044;2022-07-30T18:54:02;24.40;99.90
24836;DHT22;12915;57.650;12.044;2022-07-30T18:56:29;24.20;99.90